createdAt,value
2016-10-27T00:00:34.544Z,0
2016-10-27T00:01:34.611Z,0
2016-10-27T00:02:34.489Z,0
2016-10-27T00:03:34.533Z,0
2016-10-27T00:04:34.589Z,0
2016-10-27T00:05:34.574Z,0
2016-10-27T00:06:34.526Z,0
2016-10-27T00:07:34.630Z,0
2016-10-27T00:08:34.580Z,0
2016-10-27T00:09:34.612Z,0
2016-10-27T00:10:34.324Z,0
2016-10-27T00:11:34.390Z,0
2016-10-27T00:12:34.651Z,0
2016-10-27T00:13:34.784Z,0
2016-10-27T00:14:34.072Z,0
2016-10-27T00:15:34.814Z,0
2016-10-27T00:16:34.830Z,0
2016-10-27T00:17:34.767Z,0
2016-10-27T00:18:34.165Z,0
2016-10-27T00:19:34.796Z,0
2016-10-27T00:20:34.481Z,0
2016-10-27T00:21:34.519Z,0
2016-10-27T00:22:34.840Z,0
2016-10-27T00:23:34.569Z,0
2016-10-27T00:24:34.880Z,0
2016-10-27T00:25:34.880Z,0
2016-10-27T00:26:35.010Z,0
2016-10-27T00:27:34.962Z,0
2016-10-27T00:28:34.968Z,0
2016-10-27T00:29:34.725Z,0
2016-10-27T00:30:34.999Z,0
2016-10-27T00:31:35.131Z,0
2016-10-27T00:32:34.706Z,0
2016-10-27T00:33:35.047Z,0
2016-10-27T00:34:34.745Z,0
2016-10-27T00:35:34.783Z,0
2016-10-27T00:36:34.885Z,0
2016-10-27T00:37:35.128Z,0
2016-10-27T00:38:35.138Z,0
2016-10-27T00:39:35.229Z,0
2016-10-27T00:40:35.259Z,0
2016-10-27T00:41:34.960Z,0
2016-10-27T00:42:35.272Z,0
2016-10-27T00:43:35.306Z,0
2016-10-27T00:44:35.349Z,0
2016-10-27T00:45:35.341Z,0
2016-10-27T00:46:35.298Z,0
2016-10-27T00:47:35.334Z,0
2016-10-27T00:48:35.176Z,0
2016-10-27T00:49:35.380Z,0
2016-10-27T00:50:34.901Z,0
2016-10-27T00:51:35.380Z,0
2016-10-27T00:52:35.501Z,0
2016-10-27T00:53:35.554Z,0
2016-10-27T00:54:35.448Z,0
2016-10-27T00:55:35.259Z,0
2016-10-27T00:56:35.496Z,0
2016-10-27T00:57:35.547Z,0
2016-10-27T00:58:35.529Z,0
2016-10-27T00:59:35.549Z,0
2016-10-27T01:00:35.545Z,0
2016-10-27T01:01:35.381Z,0
2016-10-27T01:02:35.618Z,0
2016-10-27T01:03:35.608Z,0
2016-10-27T01:04:35.624Z,0
2016-10-27T01:05:35.341Z,0
2016-10-27T01:06:35.781Z,0
2016-10-27T01:07:35.387Z,0
2016-10-27T01:08:35.106Z,0
2016-10-27T01:09:35.823Z,0
2016-10-27T01:10:35.126Z,0
2016-10-27T01:11:35.182Z,0
2016-10-27T01:12:35.848Z,0
2016-10-27T01:13:35.550Z,0
2016-10-27T01:14:35.828Z,0
2016-10-27T01:15:35.823Z,0
2016-10-27T01:16:35.625Z,0
2016-10-27T01:17:35.566Z,0
2016-10-27T01:18:35.633Z,0
2016-10-27T01:19:35.921Z,0
2016-10-27T01:20:36.063Z,0
2016-10-27T01:21:36.078Z,0
2016-10-27T01:22:35.646Z,0
2016-10-27T01:23:35.364Z,0
2016-10-27T01:24:35.720Z,0
2016-10-27T01:25:35.763Z,0
2016-10-27T01:26:35.754Z,0
2016-10-27T01:27:36.067Z,0
2016-10-27T01:28:36.096Z,0
2016-10-27T01:29:35.487Z,0
2016-10-27T01:30:35.829Z,0
2016-10-27T01:31:36.196Z,0
2016-10-27T01:32:35.863Z,0
2016-10-27T01:33:36.216Z,0
2016-10-27T01:34:35.887Z,0
2016-10-27T01:35:36.220Z,0
2016-10-27T01:36:36.281Z,0
2016-10-27T01:37:36.333Z,0
2016-10-27T01:38:36.031Z,0
2016-10-27T01:39:35.967Z,0
2016-10-27T01:40:36.306Z,0
2016-10-27T01:41:36.098Z,0
2016-10-27T01:42:35.737Z,0
2016-10-27T01:43:36.106Z,0
2016-10-27T01:44:36.394Z,0
2016-10-27T01:45:36.407Z,0
2016-10-27T01:46:36.517Z,0
2016-10-27T01:47:36.487Z,0
2016-10-27T01:48:35.847Z,0
2016-10-27T01:49:36.148Z,0
2016-10-27T01:50:36.491Z,0
2016-10-27T01:51:36.551Z,0
2016-10-27T01:52:36.537Z,0
2016-10-27T01:53:36.553Z,0
2016-10-27T01:54:36.276Z,0
2016-10-27T01:55:36.596Z,0
2016-10-27T01:56:36.318Z,0
2016-10-27T01:57:36.324Z,0
2016-10-27T01:58:36.690Z,0
2016-10-27T01:59:36.855Z,0
2016-10-27T02:00:36.065Z,0
2016-10-27T02:01:36.394Z,0
2016-10-27T02:02:36.733Z,0
2016-10-27T02:03:36.762Z,0
2016-10-27T02:04:36.762Z,0
2016-10-27T02:05:36.794Z,0
2016-10-27T02:06:36.814Z,0
2016-10-27T02:07:36.977Z,0
2016-10-27T02:08:36.820Z,0
2016-10-27T02:09:36.893Z,0
2016-10-27T02:10:36.884Z,0
2016-10-27T02:11:36.954Z,0
2016-10-27T02:12:36.976Z,0
2016-10-27T02:13:36.617Z,0
2016-10-27T02:14:36.668Z,0
2016-10-27T02:15:36.666Z,0
2016-10-27T02:16:36.999Z,0
2016-10-27T02:17:36.721Z,0
2016-10-27T02:18:37.012Z,0
2016-10-27T02:19:37.036Z,0
2016-10-27T02:20:36.826Z,0
2016-10-27T02:21:37.124Z,0
2016-10-27T02:22:36.893Z,0
2016-10-27T02:23:37.226Z,0
2016-10-27T02:24:37.196Z,0
2016-10-27T02:25:37.265Z,0
2016-10-27T02:26:37.217Z,0
2016-10-27T02:27:37.191Z,0
2016-10-27T02:28:37.313Z,0
2016-10-27T02:29:37.218Z,0
2016-10-27T02:30:37.284Z,0
2016-10-27T02:31:37.284Z,0
2016-10-27T02:32:37.275Z,0
2016-10-27T02:33:37.318Z,0
2016-10-27T02:34:37.469Z,0
2016-10-27T02:35:37.356Z,0
2016-10-27T02:36:37.076Z,0
2016-10-27T02:37:37.489Z,0
2016-10-27T02:38:37.403Z,0
2016-10-27T02:39:37.467Z,0
2016-10-27T02:40:37.459Z,0
2016-10-27T02:41:37.515Z,0
2016-10-27T02:42:37.488Z,0
2016-10-27T02:43:37.524Z,0
2016-10-27T02:44:37.524Z,0
2016-10-27T02:45:37.540Z,0
2016-10-27T02:46:37.258Z,0
2016-10-27T02:47:37.256Z,0
2016-10-27T02:48:37.726Z,0
2016-10-27T02:49:37.631Z,0
2016-10-27T02:50:37.338Z,0
2016-10-27T02:51:37.128Z,0
2016-10-27T02:52:37.728Z,0
2016-10-27T02:53:37.845Z,0
2016-10-27T02:54:37.818Z,0
2016-10-27T02:55:37.738Z,0
2016-10-27T02:56:37.755Z,0
2016-10-27T02:57:37.784Z,0
2016-10-27T02:58:37.778Z,0
2016-10-27T02:59:37.867Z,0
2016-10-27T03:00:37.859Z,0
2016-10-27T03:01:37.969Z,0
2016-10-27T03:02:37.968Z,0
2016-10-27T03:03:37.986Z,0
2016-10-27T03:04:37.995Z,0
2016-10-27T03:05:37.934Z,0
2016-10-27T03:06:37.941Z,0
2016-10-27T03:07:37.646Z,0
2016-10-27T03:08:37.656Z,0
2016-10-27T03:09:37.985Z,0
2016-10-27T03:10:38.021Z,0
2016-10-27T03:11:38.014Z,0
2016-10-27T03:12:38.043Z,0
2016-10-27T03:13:37.774Z,0
2016-10-27T03:14:38.307Z,0
2016-10-27T03:15:38.201Z,0
2016-10-27T03:16:37.871Z,0
2016-10-27T03:17:38.293Z,0
2016-10-27T03:18:38.289Z,0
2016-10-27T03:19:38.198Z,0
2016-10-27T03:20:38.209Z,0
2016-10-27T03:21:38.236Z,0
2016-10-27T03:22:38.243Z,0
2016-10-27T03:23:38.289Z,0
2016-10-27T03:24:38.292Z,0
2016-10-27T03:25:38.310Z,0
2016-10-27T03:26:38.036Z,0
2016-10-27T03:27:38.168Z,0
2016-10-27T03:28:38.357Z,0
2016-10-27T03:29:38.163Z,0
2016-10-27T03:30:38.389Z,0
2016-10-27T03:31:38.629Z,0
2016-10-27T03:32:38.128Z,0
2016-10-27T03:33:38.470Z,0
2016-10-27T03:34:38.183Z,0
2016-10-27T03:35:38.171Z,0
2016-10-27T03:36:38.220Z,0
2016-10-27T03:37:38.324Z,0
2016-10-27T03:38:38.554Z,0
2016-10-27T03:39:38.580Z,0
2016-10-27T03:40:38.804Z,0
2016-10-27T03:41:38.689Z,0
2016-10-27T03:42:38.694Z,0
2016-10-27T03:43:38.174Z,0
2016-10-27T03:44:38.668Z,0
2016-10-27T03:45:38.384Z,0
2016-10-27T03:46:38.907Z,0
2016-10-27T03:47:38.753Z,0
2016-10-27T03:48:38.824Z,0
2016-10-27T03:49:38.770Z,0
2016-10-27T03:50:38.794Z,0
2016-10-27T03:51:38.518Z,0
2016-10-27T03:52:38.978Z,0
2016-10-27T03:53:38.891Z,0
2016-10-27T03:54:38.969Z,0
2016-10-27T03:55:38.892Z,0
2016-10-27T03:56:38.912Z,0
2016-10-27T03:57:38.941Z,0
2016-10-27T03:58:38.953Z,0
2016-10-27T03:59:38.645Z,0
2016-10-27T04:00:39.039Z,0
2016-10-27T04:01:39.004Z,0
2016-10-27T04:02:39.012Z,0
2016-10-27T04:03:39.027Z,0
2016-10-27T04:04:38.784Z,0
2016-10-27T04:05:38.890Z,0
2016-10-27T04:06:39.102Z,0
2016-10-27T04:07:39.132Z,0
2016-10-27T04:08:39.169Z,0
2016-10-27T04:09:39.180Z,0
2016-10-27T04:10:39.218Z,0
2016-10-27T04:12:11.172Z,0
2016-10-27T04:12:39.196Z,0
2016-10-27T04:13:38.623Z,0
2016-10-27T04:14:39.261Z,0
2016-10-27T04:15:39.012Z,0
2016-10-27T04:16:39.282Z,0
2016-10-27T04:17:39.001Z,0
2016-10-27T04:18:39.422Z,0
2016-10-27T04:19:39.443Z,0
2016-10-27T04:20:39.043Z,0
2016-10-27T04:21:39.062Z,0
2016-10-27T04:22:39.389Z,0
2016-10-27T04:23:39.428Z,0
2016-10-27T04:24:39.451Z,0
2016-10-27T04:25:39.480Z,0
2016-10-27T04:26:39.476Z,0
2016-10-27T04:27:39.481Z,0
2016-10-27T04:28:39.823Z,0
2016-10-27T04:29:39.707Z,0
2016-10-27T04:30:39.566Z,0
2016-10-27T04:31:40.055Z,0
2016-10-27T04:32:39.853Z,0
2016-10-27T04:33:39.954Z,0
2016-10-27T04:34:39.557Z,0
2016-10-27T04:35:39.661Z,0
2016-10-27T04:36:39.880Z,0
2016-10-27T04:37:39.678Z,0
2016-10-27T04:38:39.869Z,0
2016-10-27T04:39:39.982Z,0
2016-10-27T04:40:39.901Z,0
2016-10-27T04:41:39.921Z,0
2016-10-27T04:42:38.853Z,0
2016-10-27T04:43:39.930Z,0
2016-10-27T04:44:40.083Z,0
2016-10-27T04:45:39.994Z,0
2016-10-27T04:46:40.169Z,0
2016-10-27T04:47:39.621Z,0
2016-10-27T04:48:40.055Z,0
2016-10-27T04:49:39.912Z,0
2016-10-27T04:50:39.609Z,0
2016-10-27T04:51:39.973Z,0
2016-10-27T04:52:40.181Z,0
2016-10-27T04:53:39.980Z,0
2016-10-27T04:54:40.076Z,0
2016-10-27T04:55:40.003Z,0
2016-10-27T04:56:40.238Z,0
2016-10-27T04:57:39.753Z,0
2016-10-27T04:58:39.838Z,0
2016-10-27T04:59:39.854Z,0
2016-10-27T05:00:39.930Z,0
2016-10-27T05:01:40.232Z,0
2016-10-27T05:02:39.548Z,0
2016-10-27T05:03:39.939Z,0
2016-10-27T05:04:40.037Z,0
2016-10-27T05:05:40.237Z,0
2016-10-27T05:06:39.745Z,0
2016-10-27T05:07:40.262Z,0
2016-10-27T05:08:40.280Z,0
2016-10-27T05:09:40.323Z,0
2016-10-27T05:10:40.291Z,0
2016-10-27T05:11:40.477Z,0
2016-10-27T05:12:40.349Z,0
2016-10-27T05:13:40.080Z,0
2016-10-27T05:14:40.109Z,0
2016-10-27T05:15:40.268Z,0
2016-10-27T05:16:40.140Z,0
2016-10-27T05:17:40.227Z,0
2016-10-27T05:18:40.459Z,0
2016-10-27T05:19:40.214Z,0
2016-10-27T05:20:39.897Z,0
2016-10-27T05:21:40.537Z,0
2016-10-27T05:22:40.370Z,0
2016-10-27T05:23:40.799Z,0
2016-10-27T05:24:40.333Z,0
2016-10-27T05:25:40.754Z,0
2016-10-27T05:26:40.743Z,0
2016-10-27T05:27:40.457Z,0
2016-10-27T05:28:40.354Z,0
2016-10-27T05:29:40.703Z,0
2016-10-27T05:30:40.687Z,0
2016-10-27T05:31:40.741Z,0
2016-10-27T05:32:40.712Z,0
2016-10-27T05:33:40.493Z,0
2016-10-27T05:34:40.912Z,0
2016-10-27T05:35:40.798Z,0
2016-10-27T05:36:40.864Z,0
2016-10-27T05:37:40.952Z,0
2016-10-27T05:38:40.555Z,0
2016-10-27T05:39:40.959Z,0
2016-10-27T05:40:40.881Z,0
2016-10-27T05:41:40.948Z,0
2016-10-27T05:42:40.965Z,0
2016-10-27T05:43:40.983Z,0
2016-10-27T05:44:41.019Z,0
2016-10-27T05:45:40.997Z,0
2016-10-27T05:46:41.030Z,0
2016-10-27T05:47:40.798Z,0
2016-10-27T05:48:41.057Z,0
2016-10-27T05:49:41.140Z,0
2016-10-27T05:50:40.788Z,0
2016-10-27T05:51:40.840Z,0
2016-10-27T05:52:40.874Z,0
2016-10-27T05:53:41.161Z,0
2016-10-27T05:54:41.182Z,0
2016-10-27T05:55:41.192Z,0
2016-10-27T05:56:40.878Z,0
2016-10-27T05:57:41.220Z,0
2016-10-27T05:58:41.264Z,0
2016-10-27T05:59:41.286Z,0
2016-10-27T06:00:40.465Z,0
2016-10-27T06:01:41.191Z,0
2016-10-27T06:02:40.702Z,0
2016-10-27T06:03:41.382Z,0
2016-10-27T06:04:41.067Z,0
2016-10-27T06:05:41.091Z,0
2016-10-27T06:06:41.441Z,0
2016-10-27T06:07:41.453Z,0
2016-10-27T06:08:41.272Z,0
2016-10-27T06:09:41.490Z,0
2016-10-27T06:10:40.921Z,0
2016-10-27T06:11:41.489Z,0
2016-10-27T06:12:41.001Z,0
2016-10-27T06:13:41.249Z,0
2016-10-27T06:14:41.319Z,0
2016-10-27T06:15:41.571Z,0
2016-10-27T06:16:41.592Z,0
2016-10-27T06:17:41.675Z,0
2016-10-27T06:18:41.691Z,0
2016-10-27T06:19:41.382Z,0
2016-10-27T06:21:13.377Z,5
2016-10-27T06:21:41.697Z,5
2016-10-27T06:22:41.699Z,5
2016-10-27T06:23:41.738Z,5
2016-10-27T06:24:41.761Z,5
2016-10-27T06:25:41.532Z,5
2016-10-27T06:26:41.518Z,5
2016-10-27T06:27:41.889Z,5
2016-10-27T06:28:41.918Z,5
2016-10-27T06:29:41.559Z,5
2016-10-27T06:30:41.550Z,10
2016-10-27T06:31:41.897Z,10
2016-10-27T06:32:41.615Z,10
2016-10-27T06:33:41.431Z,10
2016-10-27T06:34:41.937Z,10
2016-10-27T06:35:41.371Z,10
2016-10-27T06:36:41.988Z,10
2016-10-27T06:37:42.011Z,10
2016-10-27T06:38:42.126Z,10
2016-10-27T06:39:41.851Z,15
2016-10-27T06:40:42.526Z,15
2016-10-27T06:41:42.119Z,15
2016-10-27T06:42:42.150Z,15
2016-10-27T06:43:42.194Z,15
2016-10-27T06:44:41.829Z,20
2016-10-27T06:45:42.170Z,20
2016-10-27T06:46:42.180Z,20
2016-10-27T06:47:41.879Z,20
2016-10-27T06:48:42.206Z,20
2016-10-27T06:49:41.933Z,20
2016-10-27T06:50:42.269Z,20
2016-10-27T06:51:42.711Z,25
2016-10-27T06:52:42.369Z,25
2016-10-27T06:53:42.415Z,25
2016-10-27T06:54:41.772Z,25
2016-10-27T06:55:42.440Z,25
2016-10-27T06:56:42.389Z,20
2016-10-27T06:57:42.404Z,20
2016-10-27T06:58:42.412Z,20
2016-10-27T06:59:42.490Z,20
2016-10-27T07:00:42.149Z,20
2016-10-27T07:01:42.492Z,20
2016-10-27T07:02:42.497Z,20
2016-10-27T07:03:41.881Z,20
2016-10-27T07:04:42.672Z,25
2016-10-27T07:05:42.266Z,25
2016-10-27T07:06:42.271Z,25
2016-10-27T07:07:42.279Z,25
2016-10-27T07:08:42.697Z,25
2016-10-27T07:09:42.629Z,25
2016-10-27T07:10:42.650Z,25
2016-10-27T07:11:42.367Z,25
2016-10-27T07:12:42.426Z,25
2016-10-27T07:13:42.743Z,25
2016-10-27T07:14:42.730Z,25
2016-10-27T07:15:42.773Z,25
2016-10-27T07:16:42.441Z,25
2016-10-27T07:17:42.468Z,30
2016-10-27T07:18:42.899Z,30
2016-10-27T07:19:42.876Z,25
2016-10-27T07:20:42.889Z,30
2016-10-27T07:21:42.858Z,45
2016-10-27T07:22:42.688Z,55
2016-10-27T07:23:42.895Z,55
2016-10-27T07:24:43.130Z,65
2016-10-27T07:25:42.640Z,65
2016-10-27T07:26:42.962Z,65
2016-10-27T07:27:43.110Z,60
2016-10-27T07:28:43.490Z,60
2016-10-27T07:29:43.534Z,60
2016-10-27T07:30:43.263Z,60
2016-10-27T07:31:42.986Z,60
2016-10-27T07:32:42.738Z,75
2016-10-27T07:33:43.511Z,70
2016-10-27T07:34:43.060Z,55
2016-10-27T07:35:43.498Z,60
2016-10-27T07:36:42.996Z,60
2016-10-27T07:37:43.508Z,55
2016-10-27T07:38:43.064Z,55
2016-10-27T07:39:43.516Z,55
2016-10-27T07:40:43.031Z,50
2016-10-27T07:41:43.509Z,50
2016-10-27T07:42:42.825Z,55
2016-10-27T07:43:42.877Z,55
2016-10-27T07:44:43.396Z,60
2016-10-27T07:45:43.037Z,65
2016-10-27T07:46:43.518Z,70
2016-10-27T07:47:43.574Z,70
2016-10-27T07:49:14.773Z,65
2016-10-27T07:50:15.416Z,65
2016-10-27T07:50:43.166Z,65
2016-10-27T07:51:43.559Z,65
2016-10-27T07:52:42.848Z,65
2016-10-27T07:53:43.569Z,70
2016-10-27T07:54:43.565Z,65
2016-10-27T07:55:43.157Z,70
2016-10-27T07:56:43.629Z,85
2016-10-27T07:57:43.719Z,90
2016-10-27T07:58:42.985Z,90
2016-10-27T07:59:43.621Z,100
2016-10-27T08:00:43.719Z,90
2016-10-27T08:01:43.657Z,80
2016-10-27T08:02:43.600Z,90
2016-10-27T08:03:43.636Z,110
2016-10-27T08:04:43.610Z,110
2016-10-27T08:05:43.850Z,105
2016-10-27T08:06:43.855Z,100
2016-10-27T08:07:43.640Z,95
2016-10-27T08:08:43.647Z,80
2016-10-27T08:09:43.847Z,75
2016-10-27T08:10:43.636Z,75
2016-10-27T08:11:43.872Z,70
2016-10-27T08:12:43.929Z,70
2016-10-27T08:13:43.950Z,75
2016-10-27T08:14:43.726Z,70
2016-10-27T08:15:43.951Z,70
2016-10-27T08:16:43.956Z,70
2016-10-27T08:17:43.991Z,80
2016-10-27T08:18:43.838Z,75
2016-10-27T08:19:43.719Z,80
2016-10-27T08:20:43.850Z,75
2016-10-27T08:21:43.970Z,75
2016-10-27T08:22:43.773Z,80
2016-10-27T08:23:44.144Z,90
2016-10-27T08:24:44.151Z,90
2016-10-27T08:25:44.159Z,90
2016-10-27T08:26:43.863Z,90
2016-10-27T08:27:43.941Z,90
2016-10-27T08:28:43.815Z,100
2016-10-27T08:29:44.008Z,120
2016-10-27T08:30:44.270Z,115
2016-10-27T08:31:44.440Z,125
2016-10-27T08:32:43.971Z,110
2016-10-27T08:33:44.388Z,95
2016-10-27T08:34:43.820Z,105
2016-10-27T08:35:44.434Z,100
2016-10-27T08:36:44.378Z,105
2016-10-27T08:37:44.410Z,115
2016-10-27T08:38:43.912Z,125
2016-10-27T08:39:44.720Z,145
2016-10-27T08:40:43.834Z,140
2016-10-27T08:41:44.487Z,140
2016-10-27T08:42:44.641Z,140
2016-10-27T08:43:44.619Z,115
2016-10-27T08:44:44.270Z,105
2016-10-27T08:45:44.621Z,110
2016-10-27T08:46:44.377Z,120
2016-10-27T08:47:44.625Z,115
2016-10-27T08:48:44.324Z,115
2016-10-27T08:49:44.379Z,125
2016-10-27T08:50:44.679Z,120
2016-10-27T08:51:44.378Z,120
2016-10-27T08:52:44.475Z,115
2016-10-27T08:53:44.133Z,105
2016-10-27T08:54:44.868Z,110
2016-10-27T08:55:44.176Z,105
2016-10-27T08:56:44.819Z,95
2016-10-27T08:57:44.816Z,100
2016-10-27T08:58:44.849Z,110
2016-10-27T08:59:44.611Z,135
2016-10-27T09:00:44.564Z,155
2016-10-27T09:01:44.611Z,190
2016-10-27T09:02:44.373Z,230
2016-10-27T09:03:44.932Z,245
2016-10-27T09:04:44.982Z,225
2016-10-27T09:05:44.750Z,240
2016-10-27T09:06:45.105Z,205
2016-10-27T09:07:45.092Z,220
2016-10-27T09:08:44.736Z,175
2016-10-27T09:09:45.082Z,120
2016-10-27T09:10:44.780Z,110
2016-10-27T09:11:45.341Z,115
2016-10-27T09:12:44.814Z,145
2016-10-27T09:13:45.158Z,145
2016-10-27T09:14:45.163Z,160
2016-10-27T09:15:44.889Z,200
2016-10-27T09:16:44.601Z,175
2016-10-27T09:17:45.360Z,175
2016-10-27T09:18:44.744Z,170
2016-10-27T09:19:45.403Z,170
2016-10-27T09:20:44.701Z,225
2016-10-27T09:21:45.317Z,255
2016-10-27T09:22:45.040Z,225
2016-10-27T09:23:45.158Z,185
2016-10-27T09:24:45.587Z,185
2016-10-27T09:25:45.419Z,210
2016-10-27T09:26:45.435Z,140
2016-10-27T09:27:45.480Z,175
2016-10-27T09:28:45.237Z,180
2016-10-27T09:29:45.179Z,160
2016-10-27T09:30:45.291Z,150
2016-10-27T09:31:45.528Z,140
2016-10-27T09:32:45.292Z,155
2016-10-27T09:33:45.313Z,160
2016-10-27T09:34:45.768Z,160
2016-10-27T09:35:45.646Z,130
2016-10-27T09:36:45.640Z,115
2016-10-27T09:37:45.048Z,120
2016-10-27T09:38:45.686Z,115
2016-10-27T09:39:45.422Z,125
2016-10-27T09:40:45.428Z,115
2016-10-27T09:41:45.739Z,115
2016-10-27T09:42:45.473Z,110
2016-10-27T09:43:45.579Z,120
2016-10-27T09:44:45.828Z,125
2016-10-27T09:45:45.870Z,115
2016-10-27T09:46:45.905Z,110
2016-10-27T09:47:45.878Z,130
2016-10-27T09:48:45.589Z,120
2016-10-27T09:49:45.617Z,120
2016-10-27T09:50:45.640Z,140
2016-10-27T09:51:46.001Z,135
2016-10-27T09:52:45.449Z,145
2016-10-27T09:53:45.743Z,135
2016-10-27T09:54:45.713Z,135
2016-10-27T09:55:46.195Z,140
2016-10-27T09:56:45.755Z,125
2016-10-27T09:57:45.563Z,140
2016-10-27T09:58:46.211Z,150
2016-10-27T09:59:45.836Z,170
2016-10-27T10:00:46.398Z,140
2016-10-27T10:01:45.566Z,135
2016-10-27T10:02:45.924Z,150
2016-10-27T10:03:45.895Z,155
2016-10-27T10:04:45.920Z,180
2016-10-27T10:05:45.737Z,200
2016-10-27T10:06:45.659Z,175
2016-10-27T10:07:45.693Z,150
2016-10-27T10:08:46.430Z,145
2016-10-27T10:09:45.845Z,145
2016-10-27T10:10:46.133Z,145
2016-10-27T10:11:46.409Z,140
2016-10-27T10:12:46.441Z,175
2016-10-27T10:13:45.806Z,160
2016-10-27T10:14:46.477Z,140
2016-10-27T10:15:46.494Z,170
2016-10-27T10:16:46.289Z,135
2016-10-27T10:17:45.896Z,160
2016-10-27T10:18:46.816Z,165
2016-10-27T10:19:46.309Z,165
2016-10-27T10:20:46.385Z,130
2016-10-27T10:21:45.981Z,150
2016-10-27T10:22:46.361Z,185
2016-10-27T10:23:46.856Z,170
2016-10-27T10:24:46.355Z,140
2016-10-27T10:25:46.894Z,145
2016-10-27T10:26:46.999Z,155
2016-10-27T10:27:46.429Z,170
2016-10-27T10:28:46.747Z,125
2016-10-27T10:29:46.457Z,110
2016-10-27T10:30:46.542Z,140
2016-10-27T10:31:46.536Z,125
2016-10-27T10:32:47.149Z,120
2016-10-27T10:33:46.569Z,120
2016-10-27T10:34:46.859Z,115
2016-10-27T10:35:47.011Z,105
2016-10-27T10:36:47.289Z,110
2016-10-27T10:37:47.002Z,100
2016-10-27T10:38:46.656Z,95
2016-10-27T10:39:46.989Z,95
2016-10-27T10:40:47.178Z,90
2016-10-27T10:41:46.747Z,90
2016-10-27T10:42:47.109Z,105
2016-10-27T10:43:46.869Z,100
2016-10-27T10:44:46.568Z,110
2016-10-27T10:45:47.006Z,135
2016-10-27T10:46:47.215Z,145
2016-10-27T10:47:46.563Z,130
2016-10-27T10:48:47.078Z,115
2016-10-27T10:49:47.295Z,110
2016-10-27T10:50:47.237Z,120
2016-10-27T10:51:46.642Z,160
2016-10-27T10:52:47.148Z,160
2016-10-27T10:53:46.928Z,175
2016-10-27T10:54:47.075Z,265
2016-10-27T10:55:47.397Z,305
2016-10-27T10:56:47.118Z,335
2016-10-27T10:57:47.458Z,325
2016-10-27T10:58:47.142Z,345
2016-10-27T10:59:47.031Z,335
2016-10-27T11:00:47.208Z,350
2016-10-27T11:01:47.810Z,310
2016-10-27T11:02:47.303Z,325
2016-10-27T11:03:47.509Z,335
2016-10-27T11:04:47.448Z,330
2016-10-27T11:05:47.250Z,310
2016-10-27T11:06:47.581Z,290
2016-10-27T11:07:47.717Z,295
2016-10-27T11:08:47.741Z,305
2016-10-27T11:09:47.717Z,330
2016-10-27T11:10:47.368Z,335
2016-10-27T11:11:47.828Z,305
2016-10-27T11:12:47.456Z,305
2016-10-27T11:13:47.829Z,290
2016-10-27T11:14:47.752Z,250
2016-10-27T11:15:47.236Z,220
2016-10-27T11:16:47.797Z,205
2016-10-27T11:17:47.868Z,215
2016-10-27T11:18:47.655Z,220
2016-10-27T11:19:47.671Z,250
2016-10-27T11:20:47.724Z,240
2016-10-27T11:21:47.656Z,175
2016-10-27T11:22:47.960Z,165
2016-10-27T11:23:47.230Z,185
2016-10-27T11:24:47.720Z,215
2016-10-27T11:25:48.004Z,220
2016-10-27T11:26:47.715Z,225
2016-10-27T11:27:48.049Z,160
2016-10-27T11:28:47.532Z,135
2016-10-27T11:29:48.092Z,145
2016-10-27T11:30:48.149Z,125
2016-10-27T11:31:48.237Z,130
2016-10-27T11:32:48.289Z,125
2016-10-27T11:33:48.188Z,110
2016-10-27T11:34:48.259Z,135
2016-10-27T11:35:47.945Z,175
2016-10-27T11:36:48.297Z,155
2016-10-27T11:37:47.977Z,145
2016-10-27T11:38:48.309Z,165
2016-10-27T11:39:48.351Z,185
2016-10-27T11:40:48.556Z,215
2016-10-27T11:41:48.361Z,225
2016-10-27T11:42:48.110Z,225
2016-10-27T11:43:48.548Z,240
2016-10-27T11:44:48.151Z,250
2016-10-27T11:45:48.214Z,225
2016-10-27T11:46:48.514Z,195
2016-10-27T11:47:48.207Z,195
2016-10-27T11:48:48.249Z,255
2016-10-27T11:49:48.258Z,285
2016-10-27T11:50:48.265Z,275
2016-10-27T11:51:48.786Z,275
2016-10-27T11:52:48.313Z,265
2016-10-27T11:53:48.731Z,275
2016-10-27T11:54:48.373Z,270
2016-10-27T11:55:48.367Z,265
2016-10-27T11:56:48.417Z,255
2016-10-27T11:57:48.740Z,225
2016-10-27T11:58:48.802Z,250
2016-10-27T11:59:48.780Z,255
2016-10-27T12:00:48.513Z,250
2016-10-27T12:01:48.844Z,250
2016-10-27T12:02:48.841Z,265
2016-10-27T12:03:48.864Z,255
2016-10-27T12:04:48.262Z,230
2016-10-27T12:05:48.923Z,230
2016-10-27T12:06:48.630Z,205
2016-10-27T12:07:48.660Z,205
2016-10-27T12:08:48.699Z,245
2016-10-27T12:09:49.033Z,235
2016-10-27T12:10:48.736Z,250
2016-10-27T12:11:48.769Z,265
2016-10-27T12:12:48.758Z,260
2016-10-27T12:13:49.249Z,240
2016-10-27T12:14:49.120Z,250
2016-10-27T12:15:49.148Z,210
2016-10-27T12:16:49.308Z,230
2016-10-27T12:17:49.203Z,240
2016-10-27T12:18:49.240Z,245
2016-10-27T12:19:49.244Z,250
2016-10-27T12:20:49.267Z,205
2016-10-27T12:21:49.390Z,190
2016-10-27T12:22:49.379Z,190
2016-10-27T12:23:49.379Z,200
2016-10-27T12:24:49.078Z,200
2016-10-27T12:25:49.369Z,215
2016-10-27T12:26:49.419Z,210
2016-10-27T12:27:49.126Z,210
2016-10-27T12:28:49.149Z,220
2016-10-27T12:29:48.847Z,220
2016-10-27T12:30:48.875Z,230
2016-10-27T12:31:49.637Z,230
2016-10-27T12:32:49.589Z,255
2016-10-27T12:33:48.971Z,260
2016-10-27T12:34:49.107Z,225
2016-10-27T12:35:49.003Z,225
2016-10-27T12:36:49.648Z,220
2016-10-27T12:37:49.669Z,240
2016-10-27T12:38:49.681Z,240
2016-10-27T12:39:49.701Z,260
2016-10-27T12:40:49.440Z,255
2016-10-27T12:41:49.440Z,235
2016-10-27T12:42:49.819Z,230
2016-10-27T12:43:49.833Z,230
2016-10-27T12:44:49.855Z,210
2016-10-27T12:45:49.848Z,195
2016-10-27T12:46:49.549Z,170
2016-10-27T12:47:50.179Z,175
2016-10-27T12:48:50.163Z,195
2016-10-27T12:49:50.377Z,215
2016-10-27T12:50:50.146Z,190
2016-10-27T12:51:50.317Z,165
2016-10-27T12:52:49.738Z,150
2016-10-27T12:53:50.317Z,150
2016-10-27T12:54:50.128Z,165
2016-10-27T12:55:50.389Z,200
2016-10-27T12:56:49.936Z,215
2016-10-27T12:57:50.619Z,205
2016-10-27T12:58:50.067Z,200
2016-10-27T12:59:50.044Z,175
2016-10-27T13:00:50.211Z,160
2016-10-27T13:01:50.033Z,165
2016-10-27T13:02:50.287Z,180
2016-10-27T13:03:50.300Z,200
2016-10-27T13:04:49.961Z,250
2016-10-27T13:05:50.047Z,300
2016-10-27T13:06:50.376Z,330
2016-10-27T13:07:50.339Z,345
2016-10-27T13:08:50.370Z,335
2016-10-27T13:09:50.110Z,290
2016-10-27T13:10:50.376Z,260
2016-10-27T13:11:49.471Z,240
2016-10-27T13:12:50.446Z,205
2016-10-27T13:13:50.163Z,195
2016-10-27T13:14:50.169Z,195
2016-10-27T13:15:50.865Z,190
2016-10-27T13:16:50.588Z,175
2016-10-27T13:17:50.606Z,160
2016-10-27T13:18:50.274Z,155
2016-10-27T13:19:50.705Z,160
2016-10-27T13:20:49.808Z,150
2016-10-27T13:21:50.342Z,150
2016-10-27T13:22:50.692Z,155
2016-10-27T13:23:50.698Z,155
2016-10-27T13:24:50.436Z,160
2016-10-27T13:25:50.765Z,165
2016-10-27T13:26:50.947Z,160
2016-10-27T13:27:50.855Z,160
2016-10-27T13:28:50.303Z,150
2016-10-27T13:29:50.540Z,135
2016-10-27T13:30:50.897Z,110
2016-10-27T13:31:50.893Z,105
2016-10-27T13:32:50.946Z,85
2016-10-27T13:33:50.666Z,70
2016-10-27T13:34:50.666Z,60
2016-10-27T13:35:50.663Z,50
2016-10-27T13:36:50.377Z,60
2016-10-27T13:37:50.997Z,70
2016-10-27T13:38:50.658Z,70
2016-10-27T13:39:50.787Z,60
2016-10-27T13:40:50.842Z,55
2016-10-27T13:41:50.798Z,50
2016-10-27T13:42:51.126Z,50
2016-10-27T13:43:51.166Z,45
2016-10-27T13:44:51.207Z,45
2016-10-27T13:45:50.569Z,55
2016-10-27T13:46:51.233Z,60
2016-10-27T13:47:51.006Z,60
2016-10-27T13:48:50.966Z,55
2016-10-27T13:49:51.012Z,60
2016-10-27T13:50:51.387Z,65
2016-10-27T13:51:50.726Z,65
2016-10-27T13:52:51.050Z,65
2016-10-27T13:53:51.374Z,60
2016-10-27T13:54:51.516Z,55
2016-10-27T13:55:51.417Z,50
2016-10-27T13:56:50.616Z,50
2016-10-27T13:57:51.505Z,55
2016-10-27T13:58:51.506Z,65
2016-10-27T13:59:51.300Z,75
2016-10-27T14:00:51.355Z,85
2016-10-27T14:01:51.550Z,95
2016-10-27T14:02:51.319Z,95
2016-10-27T14:03:51.609Z,100
2016-10-27T14:04:51.662Z,115
2016-10-27T14:05:51.387Z,120
2016-10-27T14:06:51.720Z,125
2016-10-27T14:07:51.774Z,135
2016-10-27T14:08:51.436Z,145
2016-10-27T14:09:51.408Z,150
2016-10-27T14:10:51.736Z,150
2016-10-27T14:11:51.784Z,150
2016-10-27T14:12:51.774Z,150
2016-10-27T14:13:51.502Z,150
2016-10-27T14:14:51.231Z,145
2016-10-27T14:15:51.840Z,150
2016-10-27T14:16:51.534Z,145
2016-10-27T14:17:51.963Z,130
2016-10-27T14:18:51.648Z,125